createdAt,value
2019-04-05T00:00:35.736Z,17.62
2019-04-05T00:01:38.013Z,17.62
2019-04-05T00:02:40.285Z,17.62
2019-04-05T00:03:42.522Z,17.62
2019-04-05T00:04:44.786Z,17.62
2019-04-05T00:05:47.009Z,17.62
2019-04-05T00:06:49.244Z,17.61
2019-04-05T00:07:51.514Z,17.62
2019-04-05T00:08:53.768Z,17.62
2019-04-05T00:09:55.968Z,17.62
2019-04-05T00:10:58.193Z,17.62
2019-04-05T00:12:00.544Z,17.62
2019-04-05T00:13:02.893Z,17.61
2019-04-05T00:14:05.134Z,17.61
2019-04-05T00:15:15.227Z,17.62
2019-04-05T00:16:11.244Z,17.62
2019-04-05T00:17:13.494Z,17.62
2019-04-05T00:18:15.744Z,17.62
2019-04-05T00:19:18.087Z,17.61
2019-04-05T00:20:20.341Z,17.62
2019-04-05T00:21:24.435Z,17.62
2019-04-05T00:22:26.607Z,17.61
2019-04-05T00:23:28.885Z,17.63
2019-04-05T00:24:31.128Z,17.61
2019-04-05T00:25:33.378Z,17.61
2019-04-05T00:26:35.616Z,17.62
2019-04-05T00:27:37.850Z,17.62
2019-04-05T00:28:40.099Z,17.61
2019-04-05T00:29:42.358Z,17.62
2019-04-05T00:30:44.591Z,17.61
2019-04-05T00:31:46.920Z,17.62
2019-04-05T00:32:49.157Z,17.61
2019-04-05T00:33:51.524Z,17.62
2019-04-05T00:34:53.748Z,17.62
2019-04-05T00:35:55.990Z,17.62
2019-04-05T00:36:58.222Z,17.61
2019-04-05T00:38:00.558Z,17.61
2019-04-05T00:39:02.831Z,17.61
2019-04-05T00:40:05.128Z,17.61
2019-04-05T00:41:07.380Z,17.62
2019-04-05T00:42:09.616Z,17.61
2019-04-05T00:43:11.867Z,17.61
2019-04-05T00:44:14.130Z,17.62
2019-04-05T00:45:27.631Z,17.62
2019-04-05T00:46:20.257Z,17.61
2019-04-05T00:47:22.483Z,17.61
2019-04-05T00:48:24.720Z,17.61
2019-04-05T00:49:26.980Z,17.61
2019-04-05T00:50:29.314Z,17.60
2019-04-05T00:51:31.532Z,17.61
2019-04-05T00:52:33.768Z,17.62
2019-04-05T00:53:36.011Z,17.61
2019-04-05T00:54:38.271Z,17.61
2019-04-05T00:55:40.503Z,17.59
2019-04-05T00:56:42.738Z,17.59
2019-04-05T00:57:44.983Z,17.60
2019-04-05T00:58:47.214Z,17.61
2019-04-05T00:59:49.547Z,17.60
2019-04-05T01:00:51.796Z,17.61
2019-04-05T01:01:54.021Z,17.60
2019-04-05T01:02:58.075Z,17.60
2019-04-05T01:04:00.328Z,17.61
2019-04-05T01:05:02.560Z,17.60
2019-04-05T01:06:04.797Z,17.60
2019-04-05T01:07:07.120Z,17.60
2019-04-05T01:08:09.351Z,17.60
2019-04-05T01:09:11.589Z,17.60
2019-04-05T01:10:13.808Z,17.60
2019-04-05T01:11:16.042Z,17.60
2019-04-05T01:12:18.293Z,17.60
2019-04-05T01:13:20.581Z,17.60
2019-04-05T01:14:22.851Z,17.59
2019-04-05T01:15:25.213Z,17.59
2019-04-05T01:16:27.488Z,17.59
2019-04-05T01:17:29.803Z,17.59
2019-04-05T01:18:32.074Z,17.60
2019-04-05T01:19:34.310Z,17.60
2019-04-05T01:20:36.709Z,17.59
2019-04-05T01:21:38.993Z,17.59
2019-04-05T01:22:41.235Z,17.60
2019-04-05T01:23:43.499Z,17.60
2019-04-05T01:24:45.825Z,17.59
2019-04-05T01:25:48.087Z,17.59
2019-04-05T01:26:50.331Z,17.59
2019-04-05T01:27:52.574Z,17.58
2019-04-05T01:28:54.813Z,17.60
2019-04-05T01:29:57.073Z,17.60
2019-04-05T01:30:59.303Z,17.59
2019-04-05T01:32:01.667Z,17.59
2019-04-05T01:33:03.891Z,17.60
2019-04-05T01:34:06.135Z,17.59
2019-04-05T01:35:08.364Z,17.61
2019-04-05T01:36:10.596Z,17.60
2019-04-05T01:37:12.845Z,17.60
2019-04-05T01:38:15.070Z,17.59
2019-04-05T01:39:17.301Z,17.59
2019-04-05T01:40:19.685Z,17.59
2019-04-05T01:41:21.927Z,17.60
2019-04-05T01:42:24.155Z,17.60
2019-04-05T01:43:26.386Z,17.59
2019-04-05T01:44:28.621Z,17.60
2019-04-05T01:45:30.871Z,17.59
2019-04-05T01:46:33.103Z,17.59
2019-04-05T01:47:35.335Z,17.59
2019-04-05T01:48:37.569Z,17.60
2019-04-05T01:49:39.815Z,17.59
2019-04-05T01:50:42.040Z,17.59
2019-04-05T01:51:44.278Z,17.58
2019-04-05T01:52:46.510Z,17.59
2019-04-05T01:53:48.733Z,17.59
2019-04-05T01:54:51.001Z,17.59
2019-04-05T01:55:53.234Z,17.60
2019-04-05T01:56:55.521Z,17.59
2019-04-05T01:57:57.779Z,17.59
2019-04-05T01:59:00.028Z,17.58
2019-04-05T02:00:02.314Z,17.60
2019-04-05T02:01:04.531Z,17.59
2019-04-05T02:02:06.777Z,17.58
2019-04-05T02:03:09.001Z,17.58
2019-04-05T02:04:11.235Z,17.59
2019-04-05T02:05:13.561Z,17.58
2019-04-05T02:06:15.805Z,17.59
2019-04-05T02:07:18.035Z,17.59
2019-04-05T02:08:20.281Z,17.58
2019-04-05T02:09:22.529Z,17.58
2019-04-05T02:10:24.789Z,17.58
2019-04-05T02:11:27.047Z,17.58
2019-04-05T02:12:29.303Z,17.58
2019-04-05T02:13:31.534Z,17.57
2019-04-05T02:14:33.763Z,17.59
2019-04-05T02:15:36.011Z,17.57
2019-04-05T02:16:38.249Z,17.58
2019-04-05T02:17:40.499Z,17.58
2019-04-05T02:18:42.719Z,17.58
2019-04-05T02:19:44.987Z,17.58
2019-04-05T02:20:47.231Z,17.57
2019-04-05T02:21:49.457Z,17.58
2019-04-05T02:22:51.699Z,17.58
2019-04-05T02:23:54.007Z,17.57
2019-04-05T02:24:56.190Z,17.57
2019-04-05T02:25:59.571Z,17.58
2019-04-05T02:27:01.744Z,17.58
2019-04-05T02:28:03.982Z,17.58
2019-04-05T02:29:06.199Z,17.56
2019-04-05T02:30:08.459Z,17.59
2019-04-05T02:31:10.698Z,17.58
2019-04-05T02:32:12.929Z,17.58
2019-04-05T02:33:15.163Z,17.58
2019-04-05T02:34:17.384Z,17.57
2019-04-05T02:35:19.632Z,17.57
2019-04-05T02:36:21.915Z,17.58
2019-04-05T02:37:24.148Z,17.57
2019-04-05T02:38:26.383Z,17.57
2019-04-05T02:39:28.616Z,17.57
2019-04-05T02:40:30.899Z,17.57
2019-04-05T02:41:33.130Z,17.57
2019-04-05T02:42:35.369Z,17.58
2019-04-05T02:43:37.610Z,17.57
2019-04-05T02:44:39.856Z,17.57
2019-04-05T02:45:42.112Z,17.57
2019-04-05T02:46:44.343Z,17.57
2019-04-05T02:47:46.591Z,17.56
2019-04-05T02:48:48.811Z,17.57
2019-04-05T02:49:51.014Z,17.56
2019-04-05T02:50:53.278Z,17.57
2019-04-05T02:51:55.513Z,17.57
2019-04-05T02:52:57.707Z,17.56
2019-04-05T02:53:59.906Z,17.56
2019-04-05T02:55:02.133Z,17.57
2019-04-05T02:56:04.392Z,17.57
2019-04-05T02:57:06.584Z,17.56
2019-04-05T02:58:08.848Z,17.56
2019-04-05T02:59:11.142Z,17.56
2019-04-05T03:00:13.344Z,17.57
2019-04-05T03:01:15.588Z,17.55
2019-04-05T03:02:17.794Z,17.57
2019-04-05T03:03:21.153Z,17.56
2019-04-05T03:04:23.299Z,17.56
2019-04-05T03:05:27.430Z,17.56
2019-04-05T03:06:29.439Z,17.56
2019-04-05T03:07:31.652Z,17.55
2019-04-05T03:08:33.862Z,17.56
2019-04-05T03:09:36.121Z,17.56
2019-04-05T03:10:38.366Z,17.55
2019-04-05T03:11:40.605Z,17.56
2019-04-05T03:12:42.809Z,17.56
2019-04-05T03:13:45.032Z,17.55
2019-04-05T03:14:47.264Z,17.55
2019-04-05T03:15:49.463Z,17.55
2019-04-05T03:16:51.701Z,17.56
2019-04-05T03:17:55.470Z,17.56
2019-04-05T03:18:57.674Z,17.55
2019-04-05T03:19:59.886Z,17.56
2019-04-05T03:21:02.103Z,17.56
2019-04-05T03:22:04.320Z,17.56
2019-04-05T03:23:06.550Z,17.56
2019-04-05T03:24:08.756Z,17.55
2019-04-05T03:25:10.970Z,17.56
2019-04-05T03:26:13.179Z,17.55
2019-04-05T03:27:15.426Z,17.56
2019-04-05T03:28:17.638Z,17.55
2019-04-05T03:29:19.879Z,17.55
2019-04-05T03:30:22.088Z,17.56
2019-04-05T03:31:25.816Z,17.55
2019-04-05T03:32:28.333Z,17.55
2019-04-05T03:33:30.545Z,17.55
2019-04-05T03:34:32.742Z,17.55
2019-04-05T03:35:34.949Z,17.55
2019-04-05T03:36:37.143Z,17.55
2019-04-05T03:37:39.364Z,17.55
2019-04-05T03:38:41.579Z,17.54
2019-04-05T03:39:43.797Z,17.55
2019-04-05T03:40:45.999Z,17.55
2019-04-05T03:41:48.263Z,17.55
2019-04-05T03:42:50.583Z,17.55
2019-04-05T03:43:52.802Z,17.55
2019-04-05T03:44:55.027Z,17.54
2019-04-05T03:45:57.246Z,17.55
2019-04-05T03:46:59.453Z,17.55
2019-04-05T03:48:01.673Z,17.55
2019-04-05T03:49:03.863Z,17.55
2019-04-05T03:50:06.081Z,17.55
2019-04-05T03:51:08.288Z,17.54
2019-04-05T03:52:10.505Z,17.54
2019-04-05T03:53:12.720Z,17.55
2019-04-05T03:54:14.935Z,17.54
2019-04-05T03:55:17.153Z,17.54
2019-04-05T03:56:19.394Z,17.55
2019-04-05T03:57:21.590Z,17.54
2019-04-05T03:58:23.815Z,17.54
2019-04-05T03:59:26.045Z,17.55
2019-04-05T04:00:28.262Z,17.55
2019-04-05T04:01:30.481Z,17.54
2019-04-05T04:02:32.661Z,17.54
2019-04-05T04:03:34.898Z,17.53
2019-04-05T04:04:37.105Z,17.54
2019-04-05T04:05:39.321Z,17.53
2019-04-05T04:06:41.537Z,17.53
2019-04-05T04:07:43.751Z,17.54
2019-04-05T04:08:45.979Z,17.53
2019-04-05T04:09:50.942Z,17.54
2019-04-05T04:10:53.147Z,17.53
2019-04-05T04:11:55.354Z,17.54
2019-04-05T04:12:57.603Z,17.53
2019-04-05T04:13:59.775Z,17.54
2019-04-05T04:15:14.006Z,17.53
2019-04-05T04:16:16.887Z,17.54
2019-04-05T04:17:19.117Z,17.55
2019-04-05T04:18:21.336Z,17.54
2019-04-05T04:19:23.533Z,17.53
2019-04-05T04:20:25.749Z,17.52
2019-04-05T04:21:27.959Z,17.53
2019-04-05T04:22:30.178Z,17.54
2019-04-05T04:23:32.401Z,17.53
2019-04-05T04:24:34.609Z,17.53
2019-04-05T04:25:36.754Z,17.53
2019-04-05T04:26:38.975Z,17.53
2019-04-05T04:27:41.196Z,17.53
2019-04-05T04:28:43.428Z,17.53
2019-04-05T04:29:45.625Z,17.53
2019-04-05T04:30:47.821Z,17.53
2019-04-05T04:31:50.032Z,17.52
2019-04-05T04:32:52.243Z,17.53
2019-04-05T04:33:54.460Z,17.52
2019-04-05T04:34:56.685Z,17.53
2019-04-05T04:35:58.924Z,17.53
2019-04-05T04:37:01.159Z,17.53
2019-04-05T04:38:03.366Z,17.52
2019-04-05T04:39:05.648Z,17.53
2019-04-05T04:40:07.891Z,17.53
2019-04-05T04:41:10.108Z,17.52
2019-04-05T04:42:12.312Z,17.52
2019-04-05T04:43:14.527Z,17.52
2019-04-05T04:44:16.764Z,17.53
2019-04-05T04:45:18.976Z,17.52
2019-04-05T04:46:21.170Z,17.53
2019-04-05T04:47:26.915Z,17.52
2019-04-05T04:48:27.252Z,17.52
2019-04-05T04:49:29.487Z,17.52
2019-04-05T04:50:31.755Z,17.52
2019-04-05T04:51:33.948Z,17.52
2019-04-05T04:52:36.170Z,17.52
2019-04-05T04:53:38.373Z,17.52
2019-04-05T04:54:40.616Z,17.52
2019-04-05T04:55:42.825Z,17.53
2019-04-05T04:56:45.096Z,17.52
2019-04-05T04:57:47.246Z,17.52
2019-04-05T04:58:49.406Z,17.52
2019-04-05T04:59:51.648Z,17.52
2019-04-05T05:00:53.906Z,17.52
2019-04-05T05:01:56.144Z,17.52
2019-04-05T05:02:58.362Z,17.52
2019-04-05T05:04:00.568Z,17.52
2019-04-05T05:05:02.811Z,17.51
2019-04-05T05:06:05.018Z,17.52
2019-04-05T05:07:07.232Z,17.52
2019-04-05T05:08:09.479Z,17.52
2019-04-05T05:09:11.676Z,17.52
2019-04-05T05:10:13.916Z,17.52
2019-04-05T05:11:16.132Z,17.51
2019-04-05T05:12:18.352Z,17.51
2019-04-05T05:13:20.560Z,17.52
2019-04-05T05:14:22.793Z,17.51
2019-04-05T05:15:27.221Z,17.51
2019-04-05T05:16:28.894Z,17.51
2019-04-05T05:17:38.377Z,17.52
2019-04-05T05:18:34.966Z,17.52
2019-04-05T05:19:37.162Z,17.53
2019-04-05T05:20:39.413Z,17.54
2019-04-05T05:21:41.610Z,17.56
2019-04-05T05:22:43.832Z,17.58
2019-04-05T05:23:46.030Z,17.58
2019-04-05T05:24:48.260Z,17.58
2019-04-05T05:25:50.498Z,17.59
2019-04-05T05:26:52.718Z,17.59
2019-04-05T05:27:54.943Z,17.60
2019-04-05T05:28:57.161Z,17.59
2019-04-05T05:29:59.362Z,17.59
2019-04-05T05:31:01.604Z,17.60
2019-04-05T05:32:03.820Z,17.60
2019-04-05T05:33:06.120Z,17.59
2019-04-05T05:34:08.332Z,17.60
2019-04-05T05:35:10.527Z,17.60
2019-04-05T05:36:12.781Z,17.60
2019-04-05T05:37:14.980Z,17.60
2019-04-05T05:38:17.184Z,17.60
2019-04-05T05:39:19.399Z,17.61
2019-04-05T05:40:34.257Z,17.60
2019-04-05T05:41:25.502Z,17.61
2019-04-05T05:42:27.733Z,17.61
2019-04-05T05:43:29.943Z,17.61
2019-04-05T05:44:32.165Z,17.61
2019-04-05T05:45:34.373Z,17.62
2019-04-05T05:46:36.625Z,17.62
2019-04-05T05:47:51.262Z,17.62
2019-04-05T05:48:42.681Z,17.62
2019-04-05T05:49:44.891Z,17.63
2019-04-05T05:50:48.802Z,17.62
2019-04-05T05:51:51.044Z,17.62
2019-04-05T05:52:53.244Z,17.62
2019-04-05T05:53:55.447Z,17.62
2019-04-05T05:54:59.373Z,17.62
2019-04-05T05:56:01.610Z,17.62
2019-04-05T05:57:03.821Z,17.63
2019-04-05T05:58:06.020Z,17.63
2019-04-05T05:59:08.225Z,17.63
2019-04-05T06:00:10.847Z,17.63
2019-04-05T06:01:13.067Z,17.63
2019-04-05T06:02:15.295Z,17.64
2019-04-05T06:03:17.497Z,17.64
2019-04-05T06:04:19.697Z,17.65
2019-04-05T06:05:21.935Z,17.64
2019-04-05T06:06:24.187Z,17.66
2019-04-05T06:07:26.388Z,17.65
2019-04-05T06:08:29.344Z,17.64
2019-04-05T06:09:31.737Z,17.65
2019-04-05T06:10:33.939Z,17.65
2019-04-05T06:11:36.165Z,17.65
2019-04-05T06:12:38.399Z,17.65
2019-04-05T06:13:40.599Z,17.64
2019-04-05T06:14:42.824Z,17.67
2019-04-05T06:15:45.044Z,17.67
2019-04-05T06:16:47.265Z,17.67
2019-04-05T06:17:49.476Z,17.66
2019-04-05T06:18:51.695Z,17.66
2019-04-05T06:19:53.946Z,17.67
2019-04-05T06:20:56.159Z,17.66
2019-04-05T06:21:58.412Z,17.67
2019-04-05T06:23:00.627Z,17.67
2019-04-05T06:24:05.231Z,17.68
2019-04-05T06:25:06.686Z,17.67
2019-04-05T06:26:08.911Z,17.67
2019-04-05T06:27:11.127Z,17.65
2019-04-05T06:28:13.343Z,17.68
2019-04-05T06:29:15.555Z,17.68
2019-04-05T06:30:17.770Z,17.67
2019-04-05T06:31:20.336Z,17.68
2019-04-05T06:32:23.213Z,17.68
2019-04-05T06:33:31.282Z,17.68
2019-04-05T06:34:29.253Z,17.68
2019-04-05T06:35:31.469Z,17.68
2019-04-05T06:36:33.669Z,17.69
2019-04-05T06:37:35.924Z,17.69
2019-04-05T06:38:38.137Z,17.68
2019-04-05T06:39:40.339Z,17.70
2019-04-05T06:40:42.541Z,17.69
2019-04-05T06:41:44.765Z,17.69
2019-04-05T06:42:47.015Z,17.69
2019-04-05T06:43:49.228Z,17.69
2019-04-05T06:44:51.434Z,17.70
2019-04-05T06:45:53.780Z,17.70
2019-04-05T06:46:56.122Z,17.69
2019-04-05T06:47:58.379Z,17.69
2019-04-05T06:49:00.591Z,17.71
2019-04-05T06:50:02.803Z,17.70
2019-04-05T06:51:05.023Z,17.71
2019-04-05T06:52:07.248Z,17.69
2019-04-05T06:53:09.491Z,17.70
2019-04-05T06:54:11.698Z,17.70
2019-04-05T06:55:13.911Z,17.72
2019-04-05T06:56:16.130Z,17.71
2019-04-05T06:57:18.356Z,17.72
2019-04-05T06:58:28.554Z,17.72
2019-04-05T06:59:24.481Z,17.72
2019-04-05T07:00:26.686Z,17.72
2019-04-05T07:01:28.882Z,17.73
2019-04-05T07:02:31.202Z,17.73
2019-04-05T07:03:33.509Z,17.72
2019-04-05T07:04:35.859Z,17.72
2019-04-05T07:05:39.139Z,17.74
2019-04-05T07:06:41.394Z,17.73
2019-04-05T07:07:43.594Z,17.73
2019-04-05T07:08:53.679Z,17.73
2019-04-05T07:09:49.665Z,17.74
2019-04-05T07:10:51.875Z,17.74
2019-04-05T07:11:54.092Z,17.74
2019-04-05T07:12:56.393Z,17.75
2019-04-05T07:13:58.783Z,17.73
2019-04-05T07:15:00.994Z,17.74
2019-04-05T07:16:03.206Z,17.73
2019-04-05T07:17:05.428Z,17.74
2019-04-05T07:18:07.650Z,17.74
2019-04-05T07:19:09.900Z,17.73
2019-04-05T07:20:12.103Z,17.74
2019-04-05T07:21:17.047Z,17.74
2019-04-05T07:22:32.163Z,17.74
2019-04-05T07:23:22.085Z,17.74
2019-04-05T07:24:24.376Z,17.74
2019-04-05T07:25:29.201Z,17.74
2019-04-05T07:26:30.531Z,17.76
2019-04-05T07:27:32.764Z,17.75
2019-04-05T07:28:34.982Z,17.76
2019-04-05T07:29:37.211Z,17.76
2019-04-05T07:30:39.418Z,17.77
2019-04-05T07:31:41.638Z,17.76
2019-04-05T07:32:43.846Z,17.77
2019-04-05T07:33:46.064Z,17.76
2019-04-05T07:34:48.313Z,17.77
2019-04-05T07:35:50.514Z,17.78
2019-04-05T07:36:52.740Z,17.77
2019-04-05T07:37:54.968Z,17.77
2019-04-05T07:38:57.179Z,17.79
2019-04-05T07:39:59.406Z,17.80
2019-04-05T07:41:01.615Z,17.80
2019-04-05T07:42:03.828Z,17.81
2019-04-05T07:43:06.076Z,17.82
2019-04-05T07:44:08.309Z,17.83
2019-04-05T07:45:10.555Z,17.82
2019-04-05T07:46:12.778Z,17.83
2019-04-05T07:47:15.002Z,17.83
2019-04-05T07:48:17.239Z,17.83
2019-04-05T07:49:19.454Z,17.83
2019-04-05T07:50:21.739Z,17.85
2019-04-05T07:51:23.940Z,17.85
2019-04-05T07:52:26.157Z,17.83
2019-04-05T07:53:28.375Z,17.84
2019-04-05T07:54:30.594Z,17.83
2019-04-05T07:55:32.847Z,17.85
2019-04-05T07:56:37.899Z,17.87
2019-04-05T07:57:40.085Z,17.86
2019-04-05T07:58:42.292Z,17.86
2019-04-05T07:59:44.517Z,17.87
2019-04-05T08:00:46.761Z,17.86
2019-04-05T08:01:48.976Z,17.88
2019-04-05T08:02:51.189Z,17.88
2019-04-05T08:03:53.416Z,17.87
2019-04-05T08:04:55.644Z,17.88
2019-04-05T08:05:57.885Z,17.88
2019-04-05T08:07:00.089Z,17.89
2019-04-05T08:08:02.367Z,17.89
2019-04-05T08:09:05.790Z,17.90
2019-04-05T08:10:08.015Z,17.90
2019-04-05T08:11:10.241Z,17.90
2019-04-05T08:12:12.467Z,18.01
2019-04-05T08:13:14.668Z,17.97
2019-04-05T08:14:18.190Z,17.92
2019-04-05T08:15:20.611Z,17.90
2019-04-05T08:16:22.814Z,17.88
2019-04-05T08:17:25.046Z,17.86
2019-04-05T08:18:27.262Z,17.86
2019-04-05T08:19:29.489Z,17.86
2019-04-05T08:20:31.695Z,17.86
2019-04-05T08:21:33.992Z,17.85
2019-04-05T08:22:36.141Z,17.86
2019-04-05T08:23:38.343Z,17.89
2019-04-05T08:24:40.549Z,17.88
2019-04-05T08:25:42.780Z,17.87
2019-04-05T08:26:45.050Z,17.85
2019-04-05T08:27:47.273Z,17.86
2019-04-05T08:28:49.493Z,17.84
2019-04-05T08:29:51.709Z,17.84
2019-04-05T08:30:53.923Z,17.84
2019-04-05T08:31:56.146Z,17.84
2019-04-05T08:32:58.351Z,17.84
2019-04-05T08:34:00.562Z,17.85
2019-04-05T08:35:02.788Z,17.86
2019-04-05T08:36:05.030Z,17.87
2019-04-05T08:37:07.265Z,17.88
2019-04-05T08:38:09.473Z,17.87
2019-04-05T08:39:11.677Z,17.86
2019-04-05T08:40:13.881Z,17.87
2019-04-05T08:41:16.090Z,17.87
2019-04-05T08:42:18.342Z,17.87
2019-04-05T08:43:20.550Z,17.88
2019-04-05T08:44:22.767Z,17.88
2019-04-05T08:45:25.033Z,17.88
2019-04-05T08:46:27.230Z,17.89
2019-04-05T08:47:29.490Z,17.89
2019-04-05T08:48:31.695Z,17.88
2019-04-05T08:49:33.899Z,17.89
2019-04-05T08:50:36.124Z,17.89
2019-04-05T08:51:38.398Z,17.89
2019-04-05T08:52:40.625Z,17.90
2019-04-05T08:53:42.835Z,17.89
2019-04-05T08:54:45.053Z,17.89
2019-04-05T08:55:47.301Z,17.90
2019-04-05T08:56:49.672Z,17.89
2019-04-05T08:57:51.910Z,17.89
2019-04-05T08:58:54.116Z,17.91
2019-04-05T08:59:56.333Z,17.90
2019-04-05T09:00:58.541Z,17.90
2019-04-05T09:02:00.743Z,17.90
2019-04-05T09:03:02.943Z,17.91
2019-04-05T09:04:05.129Z,17.91
2019-04-05T09:05:07.343Z,17.91
2019-04-05T09:06:09.555Z,17.92
2019-04-05T09:07:11.782Z,17.92
2019-04-05T09:08:14.030Z,17.92
2019-04-05T09:09:16.258Z,17.93
2019-04-05T09:10:18.483Z,17.92
2019-04-05T09:11:20.695Z,17.92
2019-04-05T09:12:22.915Z,17.92
2019-04-05T09:13:25.156Z,17.90
2019-04-05T09:14:27.475Z,17.92
2019-04-05T09:15:29.700Z,17.91
2019-04-05T09:16:31.909Z,17.92
2019-04-05T09:17:34.151Z,17.92
2019-04-05T09:18:36.393Z,17.90
2019-04-05T09:19:38.620Z,17.89
2019-04-05T09:20:40.817Z,17.91
2019-04-05T09:21:43.109Z,17.91
2019-04-05T09:22:45.315Z,17.92
2019-04-05T09:23:47.552Z,17.92
2019-04-05T09:24:49.874Z,17.90
2019-04-05T09:25:53.008Z,17.91
2019-04-05T09:26:55.222Z,17.91
2019-04-05T09:27:57.438Z,17.92
2019-04-05T09:28:59.672Z,17.93
2019-04-05T09:30:01.896Z,17.93
2019-04-05T09:31:04.103Z,17.93
2019-04-05T09:32:06.316Z,17.92
2019-04-05T09:33:08.533Z,17.92
2019-04-05T09:34:10.786Z,17.94
2019-04-05T09:35:13.663Z,17.93
2019-04-05T09:36:15.873Z,17.92
2019-04-05T09:37:18.184Z,17.94
2019-04-05T09:38:20.401Z,17.94
2019-04-05T09:39:22.705Z,17.94
2019-04-05T09:40:24.916Z,17.96
2019-04-05T09:41:27.145Z,17.96
2019-04-05T09:42:29.370Z,17.95
2019-04-05T09:43:31.635Z,17.95
2019-04-05T09:44:33.938Z,17.94
2019-04-05T09:45:36.286Z,17.94
2019-04-05T09:46:46.472Z,17.95
2019-04-05T09:47:42.400Z,17.94
2019-04-05T09:48:44.711Z,17.94
2019-04-05T09:49:46.971Z,17.96
2019-04-05T09:50:50.468Z,17.94
2019-04-05T09:51:52.703Z,17.95
2019-04-05T09:52:54.912Z,17.95
2019-04-05T09:53:57.146Z,17.96
2019-04-05T09:54:59.412Z,17.96
2019-04-05T09:56:01.640Z,17.96
2019-04-05T09:57:03.868Z,17.96
2019-04-05T09:58:06.366Z,17.95
2019-04-05T09:59:08.575Z,17.96
2019-04-05T10:00:14.289Z,17.97
2019-04-05T10:01:16.488Z,17.96
2019-04-05T10:02:18.792Z,17.97
2019-04-05T10:03:21.002Z,17.97
2019-04-05T10:04:23.210Z,17.98
2019-04-05T10:05:25.499Z,17.99
2019-04-05T10:06:27.722Z,17.99
2019-04-05T10:07:29.939Z,17.99
2019-04-05T10:08:32.160Z,17.99
2019-04-05T10:09:34.363Z,18.00
2019-04-05T10:10:36.640Z,18.00
2019-04-05T10:11:39.862Z,18.00
2019-04-05T10:12:42.080Z,18.00
2019-04-05T10:13:44.290Z,18.00
2019-04-05T10:14:46.504Z,18.00
2019-04-05T10:15:49.465Z,17.99
2019-04-05T10:17:10.578Z,17.98
2019-04-05T10:18:12.784Z,17.98
2019-04-05T10:19:15.107Z,17.97
2019-04-05T10:20:17.344Z,17.97
2019-04-05T10:21:19.583Z,17.97
2019-04-05T10:22:21.794Z,17.96
2019-04-05T10:23:24.020Z,17.97
2019-04-05T10:24:26.227Z,17.97
2019-04-05T10:25:28.427Z,17.97
2019-04-05T10:26:30.665Z,17.97
2019-04-05T10:27:32.896Z,17.96
2019-04-05T10:28:35.104Z,17.96
2019-04-05T10:29:37.303Z,17.96
2019-04-05T10:30:39.501Z,17.94
2019-04-05T10:31:41.926Z,17.96
2019-04-05T10:32:46.097Z,17.96
2019-04-05T10:33:48.280Z,17.96
2019-04-05T10:34:50.522Z,17.94
2019-04-05T10:35:52.736Z,17.96
2019-04-05T10:36:54.964Z,17.95
2019-04-05T10:37:58.518Z,17.96
2019-04-05T10:39:00.785Z,17.96
2019-04-05T10:40:03.025Z,17.96
2019-04-05T10:41:05.229Z,17.96
2019-04-05T10:42:07.577Z,17.96
2019-04-05T10:43:09.840Z,17.95
2019-04-05T10:44:13.408Z,17.95
2019-04-05T10:45:15.708Z,17.95
2019-04-05T10:46:18.031Z,17.95
2019-04-05T10:47:20.237Z,17.93
2019-04-05T10:48:22.454Z,17.95
2019-04-05T10:49:24.820Z,17.94
2019-04-05T10:50:27.037Z,17.95
2019-04-05T10:51:29.252Z,17.94
2019-04-05T10:52:31.493Z,17.94
2019-04-05T10:53:33.693Z,17.94
2019-04-05T10:54:35.914Z,17.94
2019-04-05T10:55:38.126Z,17.93
2019-04-05T10:56:40.322Z,17.95
2019-04-05T10:57:42.599Z,17.94
2019-04-05T10:58:44.794Z,17.94
2019-04-05T10:59:47.019Z,17.96
2019-04-05T11:00:49.263Z,17.96
2019-04-05T11:01:51.634Z,17.95
2019-04-05T11:02:53.860Z,17.95
2019-04-05T11:03:56.077Z,17.94
2019-04-05T11:04:58.279Z,17.95
2019-04-05T11:06:02.192Z,17.94
2019-04-05T11:07:04.393Z,17.94
2019-04-05T11:08:06.615Z,17.93
2019-04-05T11:09:08.826Z,17.94
2019-04-05T11:10:11.028Z,17.95
2019-04-05T11:11:13.241Z,17.94
2019-04-05T11:12:15.466Z,17.94
2019-04-05T11:13:17.760Z,17.94
2019-04-05T11:14:20.083Z,17.94
2019-04-05T11:15:22.296Z,17.95
2019-04-05T11:16:24.529Z,17.94
2019-04-05T11:17:26.746Z,17.94
2019-04-05T11:18:30.650Z,17.94
2019-04-05T11:19:36.218Z,17.94
2019-04-05T11:20:36.692Z,17.95
2019-04-05T11:21:38.913Z,17.94
2019-04-05T11:22:41.112Z,17.94
2019-04-05T11:23:43.321Z,17.94
2019-04-05T11:24:45.536Z,17.93
2019-04-05T11:25:47.751Z,17.94
2019-04-05T11:26:49.952Z,17.94
2019-04-05T11:27:52.197Z,17.94
2019-04-05T11:28:54.372Z,17.95
2019-04-05T11:29:57.991Z,17.93
2019-04-05T11:31:00.363Z,17.94
2019-04-05T11:32:02.561Z,17.96
2019-04-05T11:33:04.775Z,17.96
2019-04-05T11:34:06.970Z,17.97
2019-04-05T11:35:09.212Z,17.97
2019-04-05T11:36:11.644Z,17.97
2019-04-05T11:37:16.872Z,17.98
2019-04-05T11:38:19.179Z,17.98
2019-04-05T11:39:21.387Z,17.98
2019-04-05T11:40:24.231Z,17.97
2019-04-05T11:41:26.698Z,18.00
2019-04-05T11:42:28.919Z,18.01
2019-04-05T11:43:31.453Z,18.01
2019-04-05T11:44:33.782Z,18.02
2019-04-05T11:45:36.101Z,18.03
2019-04-05T11:46:38.311Z,18.03
2019-04-05T11:47:40.584Z,18.05
2019-04-05T11:48:42.773Z,18.03
2019-04-05T11:49:44.981Z,18.03
2019-04-05T11:50:47.202Z,18.02
2019-04-05T11:51:49.395Z,18.03
2019-04-05T11:52:51.629Z,18.02
2019-04-05T11:53:53.819Z,18.02
2019-04-05T11:54:56.031Z,18.01
2019-04-05T11:55:58.307Z,18.01
2019-04-05T11:57:00.513Z,18.02
2019-04-05T11:58:02.745Z,18.00
2019-04-05T11:59:06.957Z,18.01
2019-04-05T12:00:12.477Z,18.01
2019-04-05T12:01:26.785Z,18.01
2019-04-05T12:02:39.547Z,17.99
2019-04-05T12:03:42.031Z,17.99
2019-04-05T12:04:44.241Z,18.00
2019-04-05T12:05:46.546Z,18.00
2019-04-05T12:06:51.846Z,17.99
2019-04-05T12:07:52.663Z,17.99
2019-04-05T12:08:55.785Z,17.99
2019-04-05T12:09:57.997Z,17.99
2019-04-05T12:11:00.207Z,17.99
2019-04-05T12:12:02.472Z,18.00
2019-04-05T12:13:04.727Z,18.00
2019-04-05T12:14:06.944Z,18.00
2019-04-05T12:15:09.143Z,18.01
2019-04-05T12:16:11.363Z,17.98
2019-04-05T12:17:13.611Z,17.99
2019-04-05T12:18:19.369Z,18.00
2019-04-05T12:19:19.700Z,17.98
2019-04-05T12:20:21.902Z,17.99
2019-04-05T12:21:24.130Z,17.99
2019-04-05T12:22:28.281Z,18.00
2019-04-05T12:23:33.374Z,18.00
2019-04-05T12:24:34.566Z,18.00
2019-04-05T12:25:39.171Z,17.99
2019-04-05T12:26:43.199Z,18.00
2019-04-05T12:27:45.419Z,18.00
2019-04-05T12:28:47.638Z,18.00
2019-04-05T12:29:49.902Z,17.99
2019-04-05T12:30:52.118Z,17.99
2019-04-05T12:31:54.732Z,17.99
2019-04-05T12:32:56.979Z,17.99
2019-04-05T12:33:59.224Z,17.98
2019-04-05T12:35:01.447Z,17.99
2019-04-05T12:36:03.695Z,17.98
2019-04-05T12:37:05.899Z,17.98
2019-04-05T12:38:08.152Z,17.99
2019-04-05T12:39:10.351Z,17.98
2019-04-05T12:40:14.798Z,17.99
2019-04-05T12:41:18.320Z,18.00
2019-04-05T12:42:20.696Z,17.98
2019-04-05T12:43:22.914Z,17.98
2019-04-05T12:44:25.125Z,17.99
2019-04-05T12:45:27.343Z,17.99
2019-04-05T12:46:31.453Z,17.99
2019-04-05T12:47:34.083Z,17.98
2019-04-05T12:48:36.531Z,17.99
2019-04-05T12:49:38.738Z,17.98
2019-04-05T12:50:44.490Z,17.99
2019-04-05T12:51:45.458Z,17.99
2019-04-05T12:52:48.405Z,18.00
2019-04-05T12:53:50.654Z,18.00
2019-04-05T12:54:54.896Z,18.00
2019-04-05T12:55:57.089Z,18.00
2019-04-05T12:56:59.357Z,18.01
2019-04-05T12:58:01.638Z,18.01
2019-04-05T12:59:03.852Z,18.00
2019-04-05T13:00:06.074Z,18.01
2019-04-05T13:01:08.674Z,18.00
2019-04-05T13:02:11.020Z,18.01
2019-04-05T13:03:13.242Z,18.01
2019-04-05T13:04:15.511Z,18.00
2019-04-05T13:05:20.410Z,18.01
2019-04-05T13:06:22.485Z,18.01
2019-04-05T13:07:24.814Z,18.00
2019-04-05T13:08:27.024Z,18.00
2019-04-05T13:09:29.279Z,18.01
2019-04-05T13:10:31.475Z,18.01
2019-04-05T13:11:33.663Z,18.01
2019-04-05T13:12:35.938Z,18.00
2019-04-05T13:13:38.107Z,18.01
2019-04-05T13:14:40.319Z,18.01
2019-04-05T13:15:42.522Z,18.01
2019-04-05T13:16:44.744Z,18.00
2019-04-05T13:17:46.959Z,18.01
2019-04-05T13:18:49.204Z,18.01
2019-04-05T13:19:51.416Z,18.00
2019-04-05T13:20:53.633Z,18.01
2019-04-05T13:21:55.827Z,18.01
2019-04-05T13:22:58.034Z,18.01
2019-04-05T13:24:00.283Z,18.01